createdAt,value
2019-01-10T00:00:17.582Z,0
2019-01-10T00:01:17.572Z,0
2019-01-10T00:02:17.554Z,0
2019-01-10T00:03:17.537Z,0
2019-01-10T00:04:17.526Z,0
2019-01-10T00:05:17.575Z,0
2019-01-10T00:06:17.586Z,0
2019-01-10T00:07:17.479Z,0
2019-01-10T00:08:17.461Z,0
2019-01-10T00:09:17.449Z,0
2019-01-10T00:10:18.820Z,0
2019-01-10T00:11:17.419Z,0
2019-01-10T00:12:17.405Z,0
2019-01-10T00:13:17.486Z,0
2019-01-10T00:14:17.376Z,0
2019-01-10T00:15:17.397Z,0
2019-01-10T00:16:17.340Z,0
2019-01-10T00:17:17.332Z,0
2019-01-10T00:18:17.315Z,0
2019-01-10T00:19:17.301Z,0
2019-01-10T00:20:17.288Z,0
2019-01-10T00:21:17.268Z,0
2019-01-10T00:22:17.257Z,0
2019-01-10T00:23:17.240Z,0
2019-01-10T00:24:17.221Z,0
2019-01-10T00:25:17.219Z,0
2019-01-10T00:26:17.188Z,0
2019-01-10T00:27:17.177Z,0
2019-01-10T00:28:17.160Z,0
2019-01-10T00:29:17.143Z,0
2019-01-10T00:30:17.128Z,0
2019-01-10T00:31:17.112Z,0
2019-01-10T00:32:17.096Z,0
2019-01-10T00:33:17.088Z,0
2019-01-10T00:34:17.070Z,0
2019-01-10T00:35:17.051Z,0
2019-01-10T00:36:17.038Z,0
2019-01-10T00:37:17.027Z,0
2019-01-10T00:38:17.018Z,0
2019-01-10T00:39:16.993Z,0
2019-01-10T00:40:16.987Z,0
2019-01-10T00:41:16.973Z,0
2019-01-10T00:42:16.959Z,0
2019-01-10T00:43:16.937Z,0
2019-01-10T00:44:16.913Z,0
2019-01-10T00:45:16.908Z,0
2019-01-10T00:46:16.887Z,0
2019-01-10T00:47:16.871Z,0
2019-01-10T00:48:16.860Z,0
2019-01-10T00:49:16.849Z,0
2019-01-10T00:50:16.821Z,0
2019-01-10T00:51:16.805Z,0
2019-01-10T00:52:16.788Z,0
2019-01-10T00:53:16.784Z,0
2019-01-10T00:54:16.764Z,0
2019-01-10T00:55:16.750Z,0
2019-01-10T00:56:16.732Z,0
2019-01-10T00:57:16.722Z,0
2019-01-10T00:58:16.697Z,0
2019-01-10T00:59:16.684Z,0
2019-01-10T01:00:16.676Z,0
2019-01-10T01:01:16.651Z,0
2019-01-10T01:02:16.634Z,0
2019-01-10T01:03:16.625Z,0
2019-01-10T01:04:16.601Z,0
2019-01-10T01:05:16.588Z,0
2019-01-10T01:06:18.191Z,0
2019-01-10T01:07:16.560Z,0
2019-01-10T01:08:16.547Z,0
2019-01-10T01:09:16.541Z,0
2019-01-10T01:10:16.517Z,0
2019-01-10T01:11:16.504Z,0
2019-01-10T01:12:16.489Z,0
2019-01-10T01:13:16.463Z,0
2019-01-10T01:14:16.453Z,0
2019-01-10T01:15:16.435Z,0
2019-01-10T01:16:16.415Z,0
2019-01-10T01:17:18.285Z,0
2019-01-10T01:18:16.387Z,0
2019-01-10T01:19:16.374Z,0
2019-01-10T01:20:16.359Z,0
2019-01-10T01:21:16.342Z,0
2019-01-10T01:22:16.326Z,0
2019-01-10T01:23:16.312Z,0
2019-01-10T01:24:16.635Z,0
2019-01-10T01:25:16.330Z,0
2019-01-10T01:26:16.267Z,0
2019-01-10T01:27:16.255Z,0
2019-01-10T01:28:16.234Z,0
2019-01-10T01:29:18.425Z,0
2019-01-10T01:30:16.199Z,0
2019-01-10T01:31:16.183Z,0
2019-01-10T01:32:16.169Z,0
2019-01-10T01:33:16.168Z,0
2019-01-10T01:34:16.139Z,0
2019-01-10T01:35:16.145Z,0
2019-01-10T01:36:16.110Z,0
2019-01-10T01:37:16.127Z,0
2019-01-10T01:38:16.077Z,0
2019-01-10T01:39:16.060Z,0
2019-01-10T01:40:16.111Z,0
2019-01-10T01:41:16.028Z,0
2019-01-10T01:42:16.014Z,0
2019-01-10T01:43:16.020Z,0
2019-01-10T01:44:15.984Z,0
2019-01-10T01:45:15.962Z,0
2019-01-10T01:46:15.954Z,0
2019-01-10T01:47:15.935Z,0
2019-01-10T01:48:15.940Z,0
2019-01-10T01:49:15.906Z,0
2019-01-10T01:50:15.885Z,0
2019-01-10T01:51:15.871Z,0
2019-01-10T01:52:15.954Z,0
2019-01-10T01:53:15.853Z,0
2019-01-10T01:54:15.824Z,0
2019-01-10T01:55:15.825Z,0
2019-01-10T01:56:15.796Z,0
2019-01-10T01:57:15.784Z,0
2019-01-10T01:58:15.763Z,0
2019-01-10T01:59:15.748Z,0
2019-01-10T02:00:15.731Z,0
2019-01-10T02:01:15.727Z,0
2019-01-10T02:02:15.698Z,0
2019-01-10T02:03:15.691Z,0
2019-01-10T02:04:15.671Z,0
2019-01-10T02:05:15.655Z,0
2019-01-10T02:06:15.641Z,0
2019-01-10T02:07:15.621Z,0
2019-01-10T02:08:15.605Z,0
2019-01-10T02:09:15.592Z,0
2019-01-10T02:10:15.572Z,0
2019-01-10T02:11:15.577Z,0
2019-01-10T02:12:15.547Z,0
2019-01-10T02:13:23.901Z,0
2019-01-10T02:14:15.516Z,0
2019-01-10T02:15:16.788Z,0
2019-01-10T02:16:15.486Z,0
2019-01-10T02:17:15.467Z,0
2019-01-10T02:18:15.456Z,0
2019-01-10T02:19:15.441Z,0
2019-01-10T02:20:15.445Z,0
2019-01-10T02:21:15.409Z,0
2019-01-10T02:22:15.385Z,0
2019-01-10T02:23:15.372Z,0
2019-01-10T02:24:15.364Z,0
2019-01-10T02:25:15.407Z,0
2019-01-10T02:26:15.334Z,0
2019-01-10T02:27:15.311Z,0
2019-01-10T02:28:15.295Z,0
2019-01-10T02:29:15.275Z,0
2019-01-10T02:30:15.272Z,0
2019-01-10T02:31:15.255Z,0
2019-01-10T02:32:15.228Z,0
2019-01-10T02:33:15.220Z,0
2019-01-10T02:34:15.199Z,0
2019-01-10T02:35:15.187Z,0
2019-01-10T02:36:15.175Z,0
2019-01-10T02:37:15.154Z,0
2019-01-10T02:38:15.145Z,0
2019-01-10T02:39:15.125Z,0
2019-01-10T02:40:15.106Z,0
2019-01-10T02:41:15.097Z,0
2019-01-10T02:42:15.078Z,0
2019-01-10T02:43:15.066Z,0
2019-01-10T02:44:15.071Z,0
2019-01-10T02:45:15.029Z,0
2019-01-10T02:46:15.011Z,0
2019-01-10T02:47:14.990Z,0
2019-01-10T02:48:14.991Z,0
2019-01-10T02:49:14.967Z,0
2019-01-10T02:50:14.950Z,0
2019-01-10T02:51:14.943Z,0
2019-01-10T02:52:14.930Z,0
2019-01-10T02:53:14.899Z,0
2019-01-10T02:54:14.890Z,0
2019-01-10T02:55:14.875Z,0
2019-01-10T02:56:14.861Z,0
2019-01-10T02:57:14.598Z,0
2019-01-10T02:58:14.953Z,0
2019-01-10T02:59:14.810Z,0
2019-01-10T03:00:14.803Z,0
2019-01-10T03:01:14.773Z,0
2019-01-10T03:02:14.769Z,0
2019-01-10T03:03:14.750Z,0
2019-01-10T03:04:14.735Z,0
2019-01-10T03:05:14.720Z,0
2019-01-10T03:06:14.696Z,0
2019-01-10T03:07:14.686Z,0
2019-01-10T03:08:14.674Z,0
2019-01-10T03:09:14.652Z,0
2019-01-10T03:10:14.640Z,0
2019-01-10T03:11:14.622Z,0
2019-01-10T03:12:14.604Z,0
2019-01-10T03:13:14.588Z,0
2019-01-10T03:14:14.572Z,0
2019-01-10T03:15:14.563Z,0
2019-01-10T03:16:14.677Z,0
2019-01-10T03:17:14.522Z,0
2019-01-10T03:18:14.509Z,0
2019-01-10T03:19:14.490Z,0
2019-01-10T03:20:14.480Z,0
2019-01-10T03:21:14.472Z,0
2019-01-10T03:22:14.439Z,0
2019-01-10T03:23:14.430Z,0
2019-01-10T03:24:14.408Z,0
2019-01-10T03:25:14.396Z,0
2019-01-10T03:26:14.381Z,0
2019-01-10T03:27:14.378Z,0
2019-01-10T03:28:14.349Z,0
2019-01-10T03:29:16.357Z,0
2019-01-10T03:30:14.337Z,0
2019-01-10T03:31:14.318Z,0
2019-01-10T03:32:14.085Z,0
2019-01-10T03:33:14.325Z,0
2019-01-10T03:34:14.251Z,0
2019-01-10T03:35:14.233Z,0
2019-01-10T03:36:14.220Z,0
2019-01-10T03:37:14.204Z,0
2019-01-10T03:38:14.193Z,0
2019-01-10T03:39:14.168Z,0
2019-01-10T03:40:14.196Z,0
2019-01-10T03:41:14.153Z,0
2019-01-10T03:42:14.125Z,0
2019-01-10T03:43:14.115Z,0
2019-01-10T03:44:14.091Z,0
2019-01-10T03:45:14.078Z,0
2019-01-10T03:46:14.063Z,0
2019-01-10T03:47:14.078Z,0
2019-01-10T03:48:14.033Z,0
2019-01-10T03:49:14.014Z,0
2019-01-10T03:50:14.004Z,0
2019-01-10T03:51:13.989Z,0
2019-01-10T03:52:13.965Z,0
2019-01-10T03:53:14.084Z,0
2019-01-10T03:54:13.929Z,0
2019-01-10T03:55:13.926Z,0
2019-01-10T03:56:13.424Z,0
2019-01-10T03:57:13.884Z,0
2019-01-10T03:58:13.869Z,0
2019-01-10T03:59:13.867Z,0
2019-01-10T04:00:13.936Z,0
2019-01-10T04:01:13.825Z,0
2019-01-10T04:02:13.805Z,0
2019-01-10T04:03:13.791Z,0
2019-01-10T04:04:13.776Z,0
2019-01-10T04:05:13.756Z,0
2019-01-10T04:06:13.750Z,0
2019-01-10T04:07:13.724Z,0
2019-01-10T04:08:13.708Z,0
2019-01-10T04:09:13.710Z,0
2019-01-10T04:10:13.679Z,0
2019-01-10T04:11:13.423Z,0
2019-01-10T04:12:13.650Z,0
2019-01-10T04:13:13.637Z,0
2019-01-10T04:14:13.614Z,0
2019-01-10T04:15:13.625Z,0
2019-01-10T04:16:13.591Z,0
2019-01-10T04:17:13.567Z,0
2019-01-10T04:18:13.697Z,0
2019-01-10T04:19:13.561Z,0
2019-01-10T04:20:13.552Z,0
2019-01-10T04:21:24.037Z,0
2019-01-10T04:22:13.496Z,0
2019-01-10T04:23:13.476Z,0
2019-01-10T04:24:13.450Z,0
2019-01-10T04:25:13.436Z,0
2019-01-10T04:26:13.427Z,0
2019-01-10T04:27:13.413Z,0
2019-01-10T04:28:13.422Z,0
2019-01-10T04:29:13.398Z,0
2019-01-10T04:30:13.415Z,0
2019-01-10T04:31:13.361Z,0
2019-01-10T04:32:13.337Z,0
2019-01-10T04:33:13.319Z,0
2019-01-10T04:34:13.329Z,0
2019-01-10T04:35:13.300Z,0
2019-01-10T04:36:13.262Z,0
2019-01-10T04:37:13.269Z,0
2019-01-10T04:38:13.240Z,0
2019-01-10T04:39:13.220Z,0
2019-01-10T04:40:13.211Z,0
2019-01-10T04:41:13.196Z,0
2019-01-10T04:42:13.174Z,0
2019-01-10T04:43:13.148Z,0
2019-01-10T04:44:14.371Z,0
2019-01-10T04:45:13.148Z,0
2019-01-10T04:46:13.140Z,0
2019-01-10T04:47:13.088Z,0
2019-01-10T04:48:13.075Z,0
2019-01-10T04:49:13.068Z,0
2019-01-10T04:50:13.043Z,0
2019-01-10T04:51:13.026Z,0
2019-01-10T04:52:14.098Z,0
2019-01-10T04:53:13.013Z,0
2019-01-10T04:54:12.988Z,0
2019-01-10T04:55:13.007Z,0
2019-01-10T04:56:12.946Z,0
2019-01-10T04:57:12.931Z,0
2019-01-10T04:58:12.986Z,0
2019-01-10T04:59:14.576Z,0
2019-01-10T05:00:12.885Z,0
2019-01-10T05:01:12.862Z,0
2019-01-10T05:02:22.955Z,0
2019-01-10T05:03:12.838Z,0
2019-01-10T05:04:12.821Z,0
2019-01-10T05:05:12.802Z,0
2019-01-10T05:06:12.800Z,0
2019-01-10T05:07:12.774Z,0
2019-01-10T05:08:12.760Z,0
2019-01-10T05:09:12.750Z,0
2019-01-10T05:10:12.732Z,0
2019-01-10T05:11:13.872Z,0
2019-01-10T05:12:12.687Z,0
2019-01-10T05:13:12.680Z,0
2019-01-10T05:14:21.026Z,0
2019-01-10T05:15:12.645Z,0
2019-01-10T05:16:12.624Z,20
2019-01-10T05:17:12.611Z,36
2019-01-10T05:18:15.156Z,40
2019-01-10T05:19:12.726Z,36
2019-01-10T05:20:12.566Z,36
2019-01-10T05:21:12.557Z,40
2019-01-10T05:22:12.832Z,40
2019-01-10T05:23:12.511Z,36
2019-01-10T05:24:12.500Z,40
2019-01-10T05:25:12.481Z,40
2019-01-10T05:26:12.480Z,0
2019-01-10T05:27:12.474Z,0
2019-01-10T05:28:12.443Z,0
2019-01-10T05:29:12.417Z,0
2019-01-10T05:30:12.405Z,0
2019-01-10T05:31:12.493Z,0
2019-01-10T05:32:12.386Z,0
2019-01-10T05:33:12.361Z,0
2019-01-10T05:34:12.347Z,0
2019-01-10T05:35:12.331Z,0
2019-01-10T05:36:12.401Z,0
2019-01-10T05:37:13.185Z,0
2019-01-10T05:38:12.281Z,0
2019-01-10T05:39:12.262Z,0
2019-01-10T05:40:12.241Z,0
2019-01-10T05:41:12.243Z,0
2019-01-10T05:42:13.583Z,0
2019-01-10T05:43:12.258Z,0
2019-01-10T05:44:12.186Z,0
2019-01-10T05:45:12.166Z,0
2019-01-10T05:46:12.155Z,0
2019-01-10T05:47:12.139Z,0
2019-01-10T05:48:12.124Z,0
2019-01-10T05:49:12.107Z,0
2019-01-10T05:50:12.103Z,0
2019-01-10T05:51:12.084Z,0
2019-01-10T05:52:12.069Z,0
2019-01-10T05:53:12.044Z,0
2019-01-10T05:54:12.022Z,0
2019-01-10T05:55:12.010Z,0
2019-01-10T05:56:20.383Z,0
2019-01-10T05:57:11.972Z,0
2019-01-10T05:58:11.961Z,0
2019-01-10T05:59:11.946Z,0
2019-01-10T06:00:11.688Z,0
2019-01-10T06:01:11.919Z,0
2019-01-10T06:02:11.904Z,0
2019-01-10T06:03:11.881Z,0
2019-01-10T06:04:11.870Z,0
2019-01-10T06:05:13.073Z,0
2019-01-10T06:06:11.835Z,0
2019-01-10T06:07:11.817Z,0
2019-01-10T06:08:11.812Z,0
2019-01-10T06:09:11.784Z,0
2019-01-10T06:10:11.785Z,0
2019-01-10T06:11:11.757Z,0
2019-01-10T06:12:11.742Z,0
2019-01-10T06:13:11.722Z,0
2019-01-10T06:14:11.702Z,0
2019-01-10T06:15:11.696Z,0
2019-01-10T06:16:11.679Z,0
2019-01-10T06:17:11.660Z,0
2019-01-10T06:18:11.645Z,0
2019-01-10T06:19:11.627Z,0
2019-01-10T06:20:11.611Z,0
2019-01-10T06:21:11.599Z,0
2019-01-10T06:22:11.580Z,0
2019-01-10T06:23:11.563Z,0
2019-01-10T06:24:11.546Z,0
2019-01-10T06:25:11.564Z,0
2019-01-10T06:26:11.513Z,0
2019-01-10T06:27:11.518Z,0
2019-01-10T06:28:11.486Z,0
2019-01-10T06:29:11.478Z,0
2019-01-10T06:30:11.458Z,0
2019-01-10T06:31:11.436Z,0
2019-01-10T06:32:11.426Z,4
2019-01-10T06:33:11.399Z,4
2019-01-10T06:34:13.609Z,4
2019-01-10T06:35:11.375Z,0
2019-01-10T06:36:11.356Z,0
2019-01-10T06:37:11.334Z,4
2019-01-10T06:38:11.330Z,4
2019-01-10T06:39:11.306Z,4
2019-01-10T06:40:11.294Z,4
2019-01-10T06:41:11.277Z,4
2019-01-10T06:42:11.277Z,4
2019-01-10T06:43:11.241Z,8
2019-01-10T06:44:11.226Z,8
2019-01-10T06:45:11.212Z,8
2019-01-10T06:46:11.192Z,12
2019-01-10T06:47:11.184Z,12
2019-01-10T06:48:11.157Z,12
2019-01-10T06:49:11.145Z,12
2019-01-10T06:50:11.126Z,20
2019-01-10T06:51:11.125Z,20
2019-01-10T06:52:11.094Z,24
2019-01-10T06:53:11.101Z,20
2019-01-10T06:54:11.071Z,20
2019-01-10T06:55:11.047Z,24
2019-01-10T06:56:10.787Z,28
2019-01-10T06:57:11.019Z,36
2019-01-10T06:58:10.996Z,40
2019-01-10T06:59:10.981Z,36
2019-01-10T07:00:10.965Z,52
2019-01-10T07:01:10.957Z,68
2019-01-10T07:02:11.835Z,76
2019-01-10T07:03:10.920Z,92
2019-01-10T07:04:10.909Z,100
2019-01-10T07:05:11.174Z,104
2019-01-10T07:06:10.887Z,116
2019-01-10T07:07:10.856Z,128
2019-01-10T07:08:10.838Z,144
2019-01-10T07:09:10.826Z,156
2019-01-10T07:10:10.804Z,160
2019-01-10T07:11:10.802Z,164
2019-01-10T07:12:12.629Z,176
2019-01-10T07:13:10.766Z,184
2019-01-10T07:14:10.742Z,184
2019-01-10T07:15:10.725Z,196
2019-01-10T07:16:10.707Z,216
2019-01-10T07:17:10.456Z,224
2019-01-10T07:18:10.690Z,232
2019-01-10T07:19:10.660Z,212
2019-01-10T07:20:10.719Z,260
2019-01-10T07:21:10.629Z,336
2019-01-10T07:22:10.873Z,360
2019-01-10T07:23:10.609Z,408
2019-01-10T07:24:10.620Z,408
2019-01-10T07:25:10.566Z,452
2019-01-10T07:26:10.549Z,500
2019-01-10T07:27:10.532Z,500
2019-01-10T07:28:10.518Z,536
2019-01-10T07:29:10.500Z,552
2019-01-10T07:30:10.483Z,548
2019-01-10T07:31:10.471Z,536
2019-01-10T07:32:10.454Z,532
2019-01-10T07:33:10.451Z,488
2019-01-10T07:34:10.516Z,544
2019-01-10T07:35:10.409Z,536
2019-01-10T07:36:10.386Z,524
2019-01-10T07:37:19.766Z,556
2019-01-10T07:38:10.362Z,600
2019-01-10T07:39:10.339Z,636
2019-01-10T07:40:10.325Z,744
2019-01-10T07:41:10.332Z,800
2019-01-10T07:42:10.289Z,860
2019-01-10T07:43:10.302Z,904
2019-01-10T07:44:12.484Z,984
2019-01-10T07:45:10.122Z,1016
2019-01-10T07:46:10.234Z,1012
2019-01-10T07:47:10.686Z,972
2019-01-10T07:48:10.197Z,1012
2019-01-10T07:49:10.177Z,1040
2019-01-10T07:50:10.174Z,996
2019-01-10T07:51:10.154Z,1160
2019-01-10T07:52:10.127Z,1260
2019-01-10T07:53:10.117Z,1324
2019-01-10T07:54:10.102Z,1464
2019-01-10T07:55:10.093Z,1560
2019-01-10T07:56:10.065Z,1608
2019-01-10T07:57:10.066Z,1472
2019-01-10T07:58:10.037Z,1396
2019-01-10T07:59:10.015Z,1392
2019-01-10T08:00:10.001Z,1464
2019-01-10T08:01:10.074Z,1436
2019-01-10T08:02:09.970Z,1392
2019-01-10T08:03:11.293Z,1452
2019-01-10T08:04:09.946Z,1556
2019-01-10T08:05:09.930Z,1616
2019-01-10T08:06:11.762Z,1700
2019-01-10T08:07:09.892Z,1720
2019-01-10T08:08:09.877Z,1696
2019-01-10T08:09:09.856Z,1704
2019-01-10T08:10:09.843Z,1624
2019-01-10T08:11:09.824Z,1452
2019-01-10T08:12:09.812Z,1296
2019-01-10T08:13:09.803Z,1212
2019-01-10T08:14:09.784Z,1176
2019-01-10T08:15:18.821Z,1260
2019-01-10T08:16:09.747Z,1344
2019-01-10T08:17:18.264Z,1308
2019-01-10T08:18:09.839Z,1540
2019-01-10T08:19:09.701Z,1736
2019-01-10T08:20:09.850Z,1680
2019-01-10T08:21:09.671Z,1760
2019-01-10T08:22:09.655Z,1704
2019-01-10T08:23:09.642Z,1764
2019-01-10T08:24:09.621Z,1760
2019-01-10T08:25:09.611Z,1764
2019-01-10T08:26:09.594Z,1996
2019-01-10T08:27:09.635Z,1932
2019-01-10T08:28:09.568Z,1976
2019-01-10T08:29:09.545Z,1748
2019-01-10T08:30:09.528Z,1760
2019-01-10T08:31:09.511Z,1816
2019-01-10T08:32:11.274Z,2060
2019-01-10T08:33:09.479Z,2008
2019-01-10T08:34:09.474Z,2064
2019-01-10T08:35:09.460Z,1744
2019-01-10T08:36:09.434Z,1452
2019-01-10T08:37:09.418Z,1548
2019-01-10T08:38:09.406Z,1656
2019-01-10T08:39:09.144Z,1828
2019-01-10T08:40:09.132Z,1832
2019-01-10T08:41:09.361Z,1852
2019-01-10T08:42:09.342Z,1896
2019-01-10T08:43:11.670Z,1972
2019-01-10T08:44:09.313Z,2116
2019-01-10T08:45:09.490Z,2132
2019-01-10T08:46:09.281Z,1940
2019-01-10T08:47:09.269Z,2004
2019-01-10T08:48:09.251Z,1888
2019-01-10T08:49:09.282Z,1976
2019-01-10T08:50:09.223Z,1868
2019-01-10T08:51:09.212Z,2008
2019-01-10T08:52:09.189Z,2340
2019-01-10T08:53:09.173Z,2152
2019-01-10T08:54:09.162Z,2036
2019-01-10T08:55:09.234Z,2220
2019-01-10T08:56:09.137Z,2240
2019-01-10T08:57:09.114Z,2496
2019-01-10T08:58:09.102Z,2696
2019-01-10T08:59:09.087Z,2852
2019-01-10T09:00:09.692Z,2936
2019-01-10T09:01:09.051Z,2976
2019-01-10T09:02:09.153Z,3024
2019-01-10T09:03:09.020Z,3004
2019-01-10T09:04:09.009Z,3508
2019-01-10T09:05:09.023Z,3712
2019-01-10T09:06:15.368Z,3436
2019-01-10T09:07:08.960Z,3284
2019-01-10T09:08:08.946Z,3656
2019-01-10T09:09:09.025Z,4060
2019-01-10T09:10:08.924Z,4212
2019-01-10T09:11:09.022Z,3980
2019-01-10T09:12:08.885Z,3916
2019-01-10T09:13:08.944Z,4280
2019-01-10T09:14:09.544Z,4336
2019-01-10T09:15:08.846Z,4360
2019-01-10T09:16:09.167Z,4824
2019-01-10T09:17:08.810Z,5256
2019-01-10T09:18:08.796Z,4712
2019-01-10T09:19:08.775Z,4408
2019-01-10T09:20:08.775Z,4260
2019-01-10T09:21:11.636Z,4144
2019-01-10T09:22:08.736Z,4188
2019-01-10T09:23:08.720Z,4192
2019-01-10T09:24:08.703Z,4464
2019-01-10T09:25:08.690Z,4872
2019-01-10T09:26:08.680Z,4972
2019-01-10T09:27:08.665Z,4812
2019-01-10T09:28:08.642Z,4584
2019-01-10T09:29:08.627Z,4388
2019-01-10T09:30:08.619Z,4148
2019-01-10T09:31:08.605Z,4120
2019-01-10T09:32:08.581Z,4040
2019-01-10T09:33:08.569Z,3876
2019-01-10T09:34:08.553Z,3984
2019-01-10T09:35:08.540Z,4104
2019-01-10T09:36:08.525Z,4384
2019-01-10T09:37:08.770Z,4612
2019-01-10T09:38:08.495Z,4140
2019-01-10T09:39:08.481Z,3944
2019-01-10T09:40:08.472Z,4088
2019-01-10T09:41:08.449Z,4100
2019-01-10T09:42:08.441Z,4168
2019-01-10T09:43:08.433Z,4116
2019-01-10T09:44:08.525Z,3964
2019-01-10T09:45:08.394Z,3736
2019-01-10T09:46:08.376Z,3556
2019-01-10T09:47:08.360Z,3388
2019-01-10T09:48:08.352Z,3464
2019-01-10T09:49:08.339Z,3840
2019-01-10T09:50:08.322Z,3892
2019-01-10T09:51:08.301Z,3844
2019-01-10T09:52:08.288Z,3864
2019-01-10T09:53:08.276Z,3760
2019-01-10T09:54:08.258Z,3556
2019-01-10T09:55:08.241Z,3400
2019-01-10T09:56:08.227Z,3216
2019-01-10T09:57:08.267Z,3192
2019-01-10T09:58:08.201Z,3492
2019-01-10T09:59:08.186Z,3296
2019-01-10T10:00:07.929Z,3240
2019-01-10T10:01:08.153Z,4556
2019-01-10T10:02:08.144Z,4720
2019-01-10T10:03:08.123Z,5184
2019-01-10T10:04:08.110Z,5580
2019-01-10T10:05:08.098Z,4740
2019-01-10T10:06:14.982Z,4696
2019-01-10T10:07:08.070Z,4612
2019-01-10T10:08:08.051Z,4640
2019-01-10T10:09:08.107Z,4896
2019-01-10T10:10:09.096Z,5532
2019-01-10T10:11:08.012Z,6156
2019-01-10T10:12:07.994Z,6948
2019-01-10T10:13:07.980Z,7780
2019-01-10T10:14:07.987Z,8164
2019-01-10T10:15:09.408Z,8500
2019-01-10T10:16:07.929Z,7836
2019-01-10T10:17:07.921Z,7808
2019-01-10T10:18:07.900Z,8072
2019-01-10T10:19:07.898Z,6708
2019-01-10T10:20:07.874Z,6384
2019-01-10T10:21:07.913Z,6256
2019-01-10T10:22:07.948Z,6620
2019-01-10T10:23:07.589Z,7620
2019-01-10T10:24:07.820Z,7488
2019-01-10T10:25:07.805Z,7144
2019-01-10T10:26:07.812Z,8124
2019-01-10T10:27:07.780Z,8092
2019-01-10T10:28:07.761Z,7476
2019-01-10T10:29:07.744Z,7552
2019-01-10T10:30:07.740Z,7084
2019-01-10T10:31:07.713Z,6948
2019-01-10T10:32:07.792Z,7552
2019-01-10T10:33:07.692Z,8224
2019-01-10T10:34:07.690Z,9444
2019-01-10T10:35:07.666Z,8996
2019-01-10T10:36:07.423Z,6664
2019-01-10T10:37:07.634Z,5640
2019-01-10T10:38:07.618Z,5004
2019-01-10T10:39:07.609Z,5012
2019-01-10T10:40:07.590Z,5060
2019-01-10T10:41:07.578Z,5240
2019-01-10T10:42:07.565Z,5616
2019-01-10T10:43:07.547Z,5632
2019-01-10T10:44:07.540Z,6060
2019-01-10T10:45:07.522Z,6948
2019-01-10T10:46:08.823Z,6328
2019-01-10T10:47:09.492Z,6704
2019-01-10T10:48:07.491Z,6524
2019-01-10T10:49:07.468Z,6440
2019-01-10T10:50:07.449Z,5960
2019-01-10T10:51:07.451Z,6032
2019-01-10T10:52:07.423Z,6508
2019-01-10T10:53:07.411Z,6436
2019-01-10T10:54:07.159Z,6160
2019-01-10T10:55:07.389Z,5816
2019-01-10T10:56:07.368Z,5420
2019-01-10T10:57:07.357Z,5636
2019-01-10T10:58:07.438Z,5988
2019-01-10T10:59:07.332Z,6176
2019-01-10T11:00:07.414Z,6612
2019-01-10T11:01:07.296Z,6464
2019-01-10T11:02:07.284Z,6648
2019-01-10T11:03:07.273Z,6440
2019-01-10T11:04:07.264Z,6608
2019-01-10T11:05:07.346Z,6628
2019-01-10T11:06:07.241Z,5732
2019-01-10T11:07:07.215Z,5908
2019-01-10T11:08:07.201Z,5896
2019-01-10T11:09:16.053Z,5520
2019-01-10T11:10:06.985Z,6032
2019-01-10T11:11:07.157Z,6940
2019-01-10T11:12:07.139Z,7080
2019-01-10T11:13:07.130Z,6428
2019-01-10T11:14:07.121Z,5696
2019-01-10T11:15:07.105Z,5364
2019-01-10T11:16:15.086Z,5292
2019-01-10T11:17:07.075Z,4588
2019-01-10T11:18:07.058Z,4164
2019-01-10T11:19:07.042Z,4284
2019-01-10T11:20:07.036Z,4744
2019-01-10T11:21:07.016Z,4800
2019-01-10T11:22:07.000Z,4304
2019-01-10T11:23:15.555Z,4620
2019-01-10T11:24:06.979Z,5404
2019-01-10T11:25:06.958Z,5428
2019-01-10T11:26:06.947Z,4060
2019-01-10T11:27:06.687Z,3852
2019-01-10T11:28:06.920Z,4008
2019-01-10T11:29:06.912Z,4648
2019-01-10T11:30:06.899Z,4868
2019-01-10T11:31:06.873Z,5244
2019-01-10T11:32:15.482Z,5236
2019-01-10T11:33:06.851Z,5468
2019-01-10T11:34:06.936Z,5400
2019-01-10T11:35:06.843Z,5360
2019-01-10T11:36:06.807Z,6396
2019-01-10T11:37:06.793Z,6548
2019-01-10T11:38:06.784Z,6076
2019-01-10T11:39:06.761Z,5900
2019-01-10T11:40:06.745Z,6228
2019-01-10T11:41:06.731Z,6636
2019-01-10T11:42:06.725Z,5932
2019-01-10T11:43:06.699Z,5336
2019-01-10T11:44:06.692Z,4800
2019-01-10T11:45:06.433Z,4476
2019-01-10T11:46:06.660Z,4688
2019-01-10T11:47:06.644Z,4792
2019-01-10T11:48:06.638Z,4780
2019-01-10T11:49:06.623Z,5008
2019-01-10T11:50:06.606Z,5076
2019-01-10T11:51:06.587Z,5188
2019-01-10T11:52:06.575Z,5352
2019-01-10T11:53:06.559Z,5528
2019-01-10T11:54:06.545Z,6496
2019-01-10T11:55:06.531Z,8360
2019-01-10T11:56:06.518Z,10376
2019-01-10T11:57:06.503Z,10432
2019-01-10T11:58:06.488Z,9060
2019-01-10T11:59:06.476Z,7460
2019-01-10T12:00:06.480Z,6376
2019-01-10T12:01:06.542Z,5436
2019-01-10T12:02:06.535Z,4644
2019-01-10T12:03:06.431Z,4368
2019-01-10T12:04:06.405Z,4256
2019-01-10T12:05:06.395Z,4292
2019-01-10T12:06:06.376Z,4352
2019-01-10T12:07:06.363Z,4196
2019-01-10T12:08:06.354Z,3156
2019-01-10T12:09:06.334Z,2684
2019-01-10T12:10:06.330Z,2672
2019-01-10T12:11:06.307Z,2580
2019-01-10T12:12:06.305Z,2736
2019-01-10T12:13:06.281Z,3064
2019-01-10T12:14:06.265Z,3164
2019-01-10T12:15:06.255Z,3248
2019-01-10T12:16:06.239Z,3424
2019-01-10T12:17:06.224Z,3352
2019-01-10T12:18:06.220Z,3336
2019-01-10T12:19:06.730Z,3276
2019-01-10T12:20:06.182Z,3208
2019-01-10T12:21:06.168Z,3352
2019-01-10T12:22:06.154Z,3784
2019-01-10T12:23:06.152Z,4196
2019-01-10T12:24:06.127Z,4348
2019-01-10T12:25:06.115Z,4788
2019-01-10T12:26:06.098Z,5560
2019-01-10T12:27:06.080Z,6656
2019-01-10T12:28:06.065Z,7664
2019-01-10T12:29:06.053Z,8448
2019-01-10T12:30:06.034Z,7604
2019-01-10T12:31:06.022Z,5732
2019-01-10T12:32:06.007Z,4568
2019-01-10T12:33:05.999Z,4536
2019-01-10T12:34:05.981Z,4980
2019-01-10T12:35:05.975Z,5492
2019-01-10T12:36:06.071Z,5232
2019-01-10T12:37:07.668Z,5048
2019-01-10T12:38:05.984Z,4924
2019-01-10T12:39:08.238Z,4248
2019-01-10T12:40:06.102Z,3416
2019-01-10T12:41:05.879Z,3356
2019-01-10T12:42:05.865Z,3232
2019-01-10T12:43:05.852Z,3116
2019-01-10T12:44:06.444Z,3120
2019-01-10T12:45:05.822Z,3148
2019-01-10T12:46:05.997Z,3160
2019-01-10T12:47:05.791Z,3204
2019-01-10T12:48:06.456Z,3276
2019-01-10T12:49:05.759Z,3316
2019-01-10T12:50:05.747Z,3308
2019-01-10T12:51:05.734Z,3348
2019-01-10T12:52:05.720Z,3564
2019-01-10T12:53:05.706Z,3944
2019-01-10T12:54:05.985Z,4752
2019-01-10T12:55:05.683Z,6024
2019-01-10T12:56:05.657Z,6084
2019-01-10T12:57:05.645Z,6416
2019-01-10T12:58:05.631Z,7080
2019-01-10T12:59:05.613Z,5156
2019-01-10T13:00:05.600Z,3976
2019-01-10T13:01:05.593Z,3580
2019-01-10T13:02:07.080Z,3356
2019-01-10T13:03:05.557Z,3192
2019-01-10T13:04:05.569Z,3060
2019-01-10T13:05:05.525Z,2920
2019-01-10T13:06:05.511Z,2668
2019-01-10T13:07:05.495Z,2624
2019-01-10T13:08:10.761Z,2728
2019-01-10T13:09:05.465Z,2796
2019-01-10T13:10:05.636Z,2852
2019-01-10T13:11:05.439Z,2896
2019-01-10T13:12:05.425Z,3076
2019-01-10T13:13:05.411Z,3228
2019-01-10T13:14:10.099Z,3308
2019-01-10T13:15:05.379Z,3684
2019-01-10T13:16:05.367Z,3840
2019-01-10T13:17:05.359Z,3632
2019-01-10T13:18:05.334Z,3440
2019-01-10T13:19:05.341Z,3740
2019-01-10T13:20:05.312Z,3728
2019-01-10T13:21:05.288Z,3216
2019-01-10T13:22:05.277Z,2916
2019-01-10T13:23:05.261Z,2860
2019-01-10T13:24:05.282Z,2904
2019-01-10T13:25:05.232Z,3032
2019-01-10T13:26:06.909Z,3188
2019-01-10T13:27:05.201Z,3316
2019-01-10T13:28:05.243Z,3268
2019-01-10T13:29:05.180Z,3128
2019-01-10T13:30:04.919Z,3040
2019-01-10T13:31:05.151Z,3016
2019-01-10T13:32:05.144Z,3068
2019-01-10T13:33:05.113Z,3116
2019-01-10T13:34:05.100Z,3076
2019-01-10T13:35:05.089Z,3016
2019-01-10T13:36:05.070Z,2968
2019-01-10T13:37:05.058Z,2928
2019-01-10T13:38:05.043Z,2900
2019-01-10T13:39:05.033Z,2888
2019-01-10T13:40:05.017Z,2896
2019-01-10T13:41:05.004Z,2884
2019-01-10T13:42:04.743Z,2868
2019-01-10T13:43:04.975Z,2796
2019-01-10T13:44:04.952Z,2760
2019-01-10T13:45:05.004Z,2772
2019-01-10T13:46:04.925Z,2796
2019-01-10T13:47:04.916Z,2756
2019-01-10T13:48:04.895Z,2664
2019-01-10T13:49:04.875Z,2480
2019-01-10T13:50:11.177Z,2308
2019-01-10T13:51:05.174Z,2144
2019-01-10T13:52:04.587Z,2000
2019-01-10T13:53:04.815Z,1920
2019-01-10T13:54:04.801Z,1936
2019-01-10T13:55:04.972Z,1968
2019-01-10T13:56:05.467Z,1968
2019-01-10T13:57:04.762Z,1944
2019-01-10T13:58:04.738Z,1912
2019-01-10T13:59:04.729Z,1984
2019-01-10T14:00:04.721Z,2020
2019-01-10T14:01:04.695Z,2036